Portada
METAR-TAF:

METAR-TAF

Aeroports :

Kuujjuaq, Quebec, Canadà

latitud: 58-06N, longitud: 068-25W, altitud: 37 m

Observació

L'informe es va fer fa 46 minuts, a les 17:00 UTC
Vent 3 kt del Sud
Temperatura -23°C
Humitat 48%
Pressió 1031 hPa
Visibilitat: 24.1 km
Escasses núvols a una alçada de 24000 ft

METAR: CYVP 271700Z 19003KT 15SM FEW240 M23/M31 A3044 RMK CI1 CI TR SLP315

Hora: 12:46 (17:46 UTC)

Pronòstic

L'informe es va fer fa 8 minuts, a les 17:38 UTC
Pronòstic vàlid del 27 a les 18 UTC al 28 a les 06 UTC
Vent 6 kt del Sud-Oest
Visibilitat: 10 km
Cel clar
Temporalment
l' 28 a les 02 UTC al 28 a les 06 UTC
Visibilitat: 4.8 km
cristalls de gel

TAF: CYVP 271738Z 2718/2806 23006KT P6SM SKC TEMPO 2802/2806 3SM IC RMK NXT FCST BY 280000Z

Observacions i pronòstics meteorològics de més de 4000 aeroports (METAR i TAF).

Les estacions disponibles són els punts grocs i vermells al mapa.

Posi el ratolí al punt desitjat per veure el nom de l'estació.

Feu clic per veure les observacions i els pronòstics meteorològics.

Per canviar el mapa: feu clic els botons verds amb una creu de color negre per apropar; al botó verd amb un guió per allunyar la imatge; o en les fletxes verdes per a mapes adjacents.


METAR-TAF: